Latest Weather Observations for Wellcamp Airport

IDQ60801

Issued at 8:32 am EST Tuesday 22 January 2019 (issued every 10 minutes, with the page automatically refreshed every 10 minutes)

About weather observations | Map of weather stations | Latest weather observations for QLD | Other Formats
Station Details ID: 541150 Name: WELLCAMP AIRPORT Lat: -27.55 Lon: 151.78 Height: 436.98 m
Data from the previous 72 hours. | See also: Recent months for locations in Queensland
Date/Time
EST
Temp
°C
App
Temp
°C
Dew
Point
°C
Rel
Hum
%
Delta-T
°C
Wind Press
QNH
hPa
Press
MSL
hPa
Rain since
9am
mm
Dir  Spd
km/h
Gust
km/h
Spd
kts
Gust
kts
22/08:30am 25.1 24.4 17.3 62 4.9 ENE 17 28 9 15 1018.6 1016.1 0.0
22/08:00am 24.2 23.0 17.4 65 4.3 ENE 20 28 11 15 1018.6 1016.1 0.0
22/07:30am 23.2 22.4 17.9 72 3.4 ENE 19 24 10 13 1018.6 1016.1 0.0
22/07:00am 22.3 21.5 17.9 76 2.8 E 19 24 10 13 1018.6 1016.1 0.0
22/06:30am 21.6 21.9 18.0 80 2.3 E 13 15 7 8 1018.4 1015.9 0.0
22/06:00am 21.3 22.1 18.1 82 2.0 ENE 11 17 6 9 1018.0 1015.4 0.0
22/05:30am 21.3 22.6 18.5 84 1.8 E 9 13 5 7 1018.0 1015.4 0.0
22/05:00am 21.7 22.4 18.9 84 1.8 ENE 13 17 7 9 1017.8 1015.2 0.0
22/04:52am 21.8 22.5 18.8 83 1.9 ENE 13 19 7 10 1017.8 1015.2 0.0
22/04:41am 21.7 21.6 18.7 83 1.9 ENE 17 20 9 11 1017.4 1014.9 0.0
22/04:30am 21.8 22.5 18.8 83 1.9 E 13 20 7 11 1017.6 1015.0 0.0
22/04:00am 21.8 22.4 18.6 82 2.0 E 13 20 7 11 1017.6 1015.0 0.0
22/03:41am 21.8 22.4 18.6 82 2.0 E 13 20 7 11 1017.4 1014.9 0.0
22/03:30am 21.8 21.6 18.4 81 2.2 ENE 17 20 9 11 1017.3 1014.8 0.0
22/03:00am 21.7 20.6 18.7 83 1.9 ENE 22 28 12 15 1017.2 1014.7 0.0
22/02:30am 21.7 21.1 18.5 82 2.0 ENE 19 28 10 15 1017.2 1014.7 0.0
22/02:00am 21.6 21.1 18.6 83 1.9 ENE 19 28 10 15 1017.1 1014.6 0.0
22/01:30am 21.6 21.7 18.4 82 2.0 E 15 24 8 13 1017.3 1014.8 0.0
22/01:05am 21.6 22.0 18.2 81 2.2 E 13 19 7 10 1017.4 1014.9 0.0
22/01:00am 21.7 22.2 18.3 81 2.2 E 13 20 7 11 1017.7 1015.1 0.0
22/12:30am 21.5 22.1 17.7 79 2.4 ENE 11 15 6 8 1017.9 1015.3 0.0
22/12:00am 22.1 22.8 17.9 77 2.7 E 11 20 6 11 1018.2 1015.7 0.0
 
Date/Time
EST
Temp
°C
App
Temp
°C
Dew
Point
°C
Rel
Hum
%
Delta-T
°C
Wind Press
QNH
hPa
Press
MSL
hPa
Rain since
9am
mm
Dir  Spd
km/h
Gust
km/h
Spd
kts
Gust
kts
21/11:30pm 22.4 22.3 17.8 75 2.9 E 15 22 8 12 1018.6 1016.1 0.0
21/11:00pm 22.8 21.9 17.7 73 3.2 E 19 30 10 16 1019.1 1016.6 0.0
21/10:30pm 23.0 22.1 18.1 74 3.1 E 20 30 11 16 1019.3 1016.8 0.0
21/10:00pm 23.4 23.3 17.8 71 3.5 E 15 28 8 15 1019.5 1017.0 0.0
21/09:30pm 23.7 23.2 17.9 70 3.7 ENE 17 30 9 16 1019.3 1016.8 0.0
21/09:00pm 24.2 23.9 18.2 69 3.8 ENE 17 32 9 17 1019.0 1016.5 0.0
21/08:30pm 24.9 23.3 18.4 67 4.2 E 24 35 13 19 1018.7 1016.2 0.0
21/08:00pm 25.9 25.0 18.1 62 5.0 E 20 32 11 17 1018.2 1015.7 0.0
21/07:30pm 27.0 24.0 17.8 57 5.9 E 30 37 16 20 1017.2 1014.7 0.0
21/07:00pm 28.2 24.6 17.1 51 7.1 E 32 44 17 24 1016.5 1014.0 0.0
21/06:30pm 29.3 25.8 16.5 46 8.1 E 30 39 16 21 1016.3 1013.8 0.0
21/06:00pm 30.5 26.6 16.5 43 8.9 E 32 41 17 22 1015.8 1013.2 0.0
21/05:30pm 31.6 28.4 16.4 40 9.7 E 28 37 15 20 1015.5 1012.9 0.0
21/05:00pm 32.4 29.2 15.4 36 10.7 E 26 43 14 23 1015.3 1012.7 0.0
21/04:30pm 32.8 29.2 15.3 34 11.0 ESE 28 39 15 21 1014.9 1012.4 0.0
21/04:00pm 32.7 29.3 15.7 36 10.8 ESE 28 46 15 25 1014.9 1012.4 0.0
21/03:55pm 33.4 30.2 16.3 36 11.0 ESE 28 46 15 25 1014.8 1012.3 0.0
21/03:30pm 33.2 30.1 15.7 35 11.1 E 26 48 14 26 1014.9 1012.4 0.0
21/03:24pm 33.7 31.2 16.1 34 11.3 E 24 48 13 26 1014.7 1012.2 0.0
21/03:00pm 33.4 30.8 14.9 32 11.6 ESE 22 33 12 18 1015.3 1012.7 0.0
21/02:30pm 33.6 31.3 15.6 34 11.4 ESE 22 35 12 19 1015.5 1012.9 0.0
21/02:00pm 32.7 30.6 14.8 34 11.2 E 19 30 10 16 1015.9 1013.3 0.0
21/01:30pm 32.7 30.8 15.2 34 11.0 E 19 35 10 19 1016.3 1013.8 0.0
21/01:00pm 32.2 30.9 15.7 37 10.4 ESE 17 33 9 18 1016.6 1014.1 0.0
21/12:30pm 31.0 29.3 16.2 41 9.4 ESE 20 37 11 20 1017.0 1014.5 0.0
21/12:00pm 31.4 30.9 16.9 41 9.3 E 15 24 8 13 1017.4 1014.9 0.0
21/11:30am 30.3 28.9 17.0 44 8.5 E 20 32 11 17 1017.9 1015.3 0.0
21/11:00am 29.2 28.2 16.7 46 7.9 E 17 30 9 16 1018.0 1015.4 0.0
21/10:30am 28.8 27.6 17.0 49 7.5 ESE 19 32 10 17 1018.2 1015.7 0.0
21/10:00am 28.1 26.6 17.6 53 6.7 ESE 22 35 12 19 1018.1 1015.5 0.0
21/09:30am 26.7 24.9 17.8 58 5.7 E 24 33 13 18 1018.1 1015.5 0.0
21/09:00am 26.2 24.0 17.8 60 5.4 ESE 26 37 14 20 1018.5 1016.0 0.0
21/08:30am 24.3 21.8 18.0 68 4.0 ESE 28 37 15 20 1018.7 1016.2 0.0
21/08:00am 24.2 23.5 18.6 71 3.6 E 20 32 11 17 1018.8 1016.3 0.0
21/07:30am 23.5 22.0 18.6 74 3.1 E 24 32 13 17 1018.5 1016.0 0.0
21/07:16am 23.3 21.8 18.6 75 3.0 E 24 30 13 16 1018.4 1015.9 0.0
21/07:00am 22.8 21.7 18.6 77 2.7 E 22 32 12 17 1018.3 1015.8 0.0
21/06:30am 22.6 22.0 18.8 79 2.4 E 20 30 11 16 1018.1 1015.5 0.0
21/06:09am 22.2 22.0 18.6 80 2.3 E 17 24 9 13 1018.0 1015.4 0.0
21/06:00am 22.1 22.4 18.7 81 2.2 E 15 26 8 14 1018.0 1015.4 0.0
21/05:30am 22.4 23.0 18.6 79 2.4 ESE 13 20 7 11 1017.9 1015.3 0.0
21/05:26am 22.4 22.5 18.4 78 2.6 ESE 15 22 8 12 1017.8 1015.2 0.0
21/05:01am 22.3 22.1 18.5 79 2.4 ESE 17 24 9 13 1017.7 1015.1 0.0
21/05:00am 22.3 22.1 18.5 79 2.4 ESE 17 24 9 13 1017.6 1015.0 0.0
21/04:30am 22.2 23.6 18.6 80 2.3 ESE 9 20 5 11 1017.4 1014.9 0.0
21/04:00am 22.5 22.3 18.5 78 2.6 ESE 17 22 9 12 1017.3 1014.8 0.0
21/03:30am 22.5 23.4 18.5 78 2.6 E 11 15 6 8 1017.1 1014.6 0.0
21/03:00am 22.3 22.8 18.3 78 2.5 ENE 13 19 7 10 1017.1 1014.6 0.0
21/02:30am 22.3 21.9 18.1 77 2.7 ENE 17 24 9 13 1017.2 1014.7 0.0
21/02:00am 22.7 22.3 18.0 75 3.0 E 17 22 9 12 1017.6 1015.0 0.0
21/01:30am 22.7 23.2 18.3 76 2.8 E 13 17 7 9 1018.0 1015.4 0.0
21/01:00am 22.0 23.1 18.0 78 2.5 E 9 11 5 6 1018.3 1015.8 0.0
21/12:30am 22.2 23.3 18.0 77 2.7 E 9 13 5 7 1018.3 1015.8 0.0
21/12:00am 22.8 22.8 18.1 75 3.0 E 15 20 8 11 1018.4 1015.9 0.0
 
Date/Time
EST
Temp
°C
App
Temp
°C
Dew
Point
°C
Rel
Hum
%
Delta-T
°C
Wind Press
QNH
hPa
Press
MSL
hPa
Rain since
9am
mm
Dir  Spd
km/h
Gust
km/h
Spd
kts
Gust
kts
20/11:30pm 23.1 22.7 18.0 73 3.2 E 17 22 9 12 1018.7 1016.2 0.0
20/11:00pm 23.2 23.9 17.9 72 3.4 E 11 17 6 9 1018.9 1016.4 0.0
20/10:30pm 23.6 24.2 17.8 70 3.7 E 11 19 6 10 1019.0 1016.5 0.0
20/10:00pm 24.1 23.6 17.8 68 4.0 E 17 22 9 12 1019.1 1016.6 0.0
20/09:30pm 24.6 24.5 17.8 66 4.3 E 15 22 8 12 1019.0 1016.5 0.0
20/09:00pm 25.4 23.2 17.8 62 4.8 E 26 32 14 17 1018.7 1016.2 0.0
20/08:30pm 26.1 25.6 17.7 60 5.4 E 17 22 9 12 1018.5 1016.0 0.0
20/08:00pm 26.9 26.4 17.7 57 5.9 ESE 17 24 9 13 1018.0 1015.4 0.0
20/07:30pm 28.4 27.4 17.6 52 6.9 E 19 28 10 15 1017.3 1014.8 0.0
20/07:00pm 29.8 28.7 17.3 47 8.0 E 19 28 10 15 1016.7 1014.2 0.0
20/06:30pm 31.1 28.1 15.9 40 9.6 E 26 33 14 18 1016.3 1013.8 0.0
20/06:00pm 32.0 28.7 15.1 36 10.6 E 26 37 14 20 1015.9 1013.3 0.0
20/05:30pm 32.6 28.3 13.3 31 11.8 E 28 35 15 19 1015.6 1013.0 0.0
20/05:00pm 33.2 28.8 12.8 29 12.4 E 28 39 15 21 1015.4 1012.8 0.0
20/04:30pm 34.1 30.5 13.0 28 12.9 ENE 24 35 13 19 1015.2 1012.6 0.0
20/04:00pm 34.0 29.2 11.8 26 13.4 E 28 41 15 22 1015.3 1012.7 0.0
20/03:30pm 34.8 30.8 13.0 26 13.4 ESE 26 37 14 20 1015.5 1012.9 0.0
20/03:00pm 34.3 30.4 12.0 25 13.5 E 24 35 13 19 1015.8 1013.2 0.0
20/02:30pm 34.1 30.5 13.0 28 12.9 E 24 37 13 20 1016.2 1013.7 0.0
20/02:00pm 34.2 31.2 12.5 27 13.2 E 20 37 11 20 1016.7 1014.2 0.0
20/01:30pm 33.0 30.3 13.6 31 12.0 ENE 20 35 11 19 1017.1 1014.6 0.0
20/01:00pm 33.2 30.7 15.2 33 11.3 E 22 35 12 19 1017.3 1014.8 0.0
20/12:30pm 31.9 28.4 15.4 37 10.4 ENE 28 39 15 21 1018.0 1015.4 0.0
20/12:00pm 31.8 30.0 16.1 38 10.0 E 20 30 11 16 1018.5 1016.0 0.0
20/11:30am 30.6 28.7 16.6 43 8.9 E 22 33 12 18 1018.6 1016.1 0.0
20/11:00am 30.2 28.3 17.6 46 8.1 E 24 35 13 19 1019.0 1016.5 0.0
20/10:30am 29.2 27.3 17.7 50 7.4 E 24 37 13 20 1019.2 1016.7 0.0
20/10:00am 27.8 24.7 17.6 53 6.5 E 30 39 16 21 1019.5 1017.0 0.0
20/09:30am 27.6 26.4 18.3 57 6.0 E 22 32 12 17 1019.8 1017.3 0.0
20/09:00am 25.8 23.5 18.5 64 4.7 ESE 28 44 15 24 1019.8 1017.3 0.0
20/08:30am 25.5 22.8 18.4 65 4.6 ESE 30 46 16 25 1019.8 1017.3 0.0
20/08:28am 25.7 23.6 18.9 66 4.4 ESE 28 46 15 25 1019.8 1017.3 0.0
20/08:18am 24.8 22.6 18.7 69 3.9 SE 28 41 15 22 1020.1 1017.5 0.0
20/08:00am 24.4 23.4 18.8 71 3.6 ESE 22 37 12 20 1020.1 1017.5 0.0
20/07:30am 23.9 23.4 19.0 74 3.2 ESE 20 28 11 15 1019.6 1017.1 0.0
20/07:00am 22.9 21.8 18.7 77 2.7 ESE 22 35 12 19 1019.3 1016.8 0.0
20/06:45am 22.4 21.9 18.6 79 2.4 SE 19 32 10 17 1019.0 1016.5 0.0
20/06:30am 21.9 20.3 18.3 80 2.3 SE 24 32 13 17 1018.6 1016.1 0.0
20/06:00am 21.7 21.0 18.3 81 2.2 SE 19 26 10 14 1018.0 1015.4 0.0
20/05:30am 21.1 21.8 17.9 82 2.0 SE 11 15 6 8 1017.3 1014.8 0.0
20/05:00am 20.9 21.6 17.9 83 1.9 SE 11 15 6 8 1017.0 1014.5 0.0
20/04:30am 19.1 20.2 16.5 85 1.6 SW 6 7 3 4 1016.7 1014.2 0.0
20/04:17am 20.3 21.6 17.1 82 2.0 NNE 6 7 3 4 1016.6 1014.1 0.0
20/04:16am 20.1 21.4 17.1 83 1.9 NNE 6 7 3 4 1016.6 1014.1 0.0
20/04:00am 20.3 21.7 17.3 83 1.9 WNW 6 7 3 4 1016.4 1013.9 0.0
20/03:57am 20.0 21.3 17.2 84 1.7 W 6 7 3 4 1016.3 1013.8 0.0
20/03:30am 20.3 21.2 16.5 79 2.3 N 7 11 4 6 1016.1 1013.6 0.0
20/03:00am 22.4 22.3 17.8 75 2.9 NNE 15 20 8 11 1016.0 1013.4 0.0
20/02:30am 23.1 22.9 16.6 67 4.0 SE 13 22 7 12 1016.1 1013.6 0.0
20/02:00am 23.9 23.9 16.2 62 4.8 S 11 19 6 10 1016.3 1013.8 0.0
20/01:30am 24.7 24.5 15.6 57 5.6 S 11 17 6 9 1016.3 1013.8 0.0
20/01:00am 22.8 23.5 16.1 66 4.1 WNW 7 13 4 7 1016.6 1014.1 0.0
20/12:30am 23.8 24.4 16.8 65 4.4 SW 9 13 5 7 1016.8 1014.3 0.0
20/12:00am 24.8 26.1 17.0 62 4.9 SE 6 13 3 7 1017.2 1014.7 0.0
 
Date/Time
EST
Temp
°C
App
Temp
°C
Dew
Point
°C
Rel
Hum
%
Delta-T
°C
Wind Press
QNH
hPa
Press
MSL
hPa
Rain since
9am
mm
Dir  Spd
km/h
Gust
km/h
Spd
kts
Gust
kts
19/11:30pm 25.8 24.5 17.2 59 5.5 ESE 20 24 11 13 1017.4 1014.9 0.0
19/11:00pm 26.0 25.5 16.8 57 5.8 SE 15 19 8 10 1017.7 1015.1 0.0
19/10:30pm 26.7 27.1 16.3 53 6.5 SSE 9 19 5 10 1017.2 1014.7 0.0
19/10:00pm 27.2 28.2 16.8 53 6.6 NW 7 13 4 7 1017.0 1014.5 0.0
19/09:30pm 27.9 27.7 16.8 50 7.0 E 13 24 7 13 1016.8 1014.3 0.0
19/09:00pm 29.0 26.0 16.9 48 7.7 ENE 28 33 15 18 1016.2 1013.7 0.0
19/08:30pm 29.7 28.5 16.1 43 8.6 E 17 24 9 13 1016.2 1013.7 0.0
19/08:00pm 30.7 27.7 10.6 29 11.7 E 17 22 9 12 1016.0 1013.4 0.0
19/07:30pm 32.0 27.4 9.5 25 13.0 E 24 32 13 17 1015.3 1012.7 0.0
19/07:00pm 33.2 28.1 4.0 16 15.5 E 20 28 11 15 1014.7 1012.2 0.0
19/06:30pm 34.5 28.9 1.0 12 17.1 E 20 26 11 14 1014.2 1011.7 0.0
19/06:00pm 35.6 29.5 0.6 11 17.9 E 22 28 12 15 1013.8 1011.2 0.0
19/05:30pm 36.3 30.7 1.2 11 18.2 E 20 30 11 16 1013.7 1011.1 0.0
19/05:00pm 37.0 31.5 1.7 11 18.5 E 20 32 11 17 1013.4 1010.8 0.0
19/04:30pm 37.6 32.9 0.8 10 19.1 E 15 32 8 17 1013.4 1010.8 0.0
19/04:00pm 38.2 33.6 3.8 12 18.7 E 17 32 9 17 1013.6 1011.0 0.0
19/03:30pm 36.6 32.4 3.7 13 17.7 E 15 28 8 15 1014.0 1011.5 0.0
19/03:00pm 37.6 33.6 6.6 15 17.5 E 17 30 9 16 1014.2 1011.7 0.0
19/02:30pm 37.0 32.7 5.1 14 17.6 E 17 24 9 13 1014.6 1012.1 0.0
19/02:00pm 36.9 32.9 5.0 14 17.6 ENE 15 24 8 13 1014.9 1012.4 0.0
19/01:30pm 36.1 31.8 3.3 13 17.5 E 15 28 8 15 1015.5 1012.9 0.0
19/01:00pm 35.8 32.2 3.1 13 17.4 NNE 11 24 6 13 1016.0 1013.4 0.0
19/12:30pm 34.9 32.0 4.4 15 16.5 E 9 20 5 11 1016.5 1014.0 0.0
19/12:00pm 35.5 32.1 7.6 18 15.9 NE 15 30 8 16 1016.9 1014.4 0.0
19/11:30am 33.6 31.8 10.9 25 13.5 ENE 11 20 6 11 1017.4 1014.9 0.0
19/11:00am 32.5 31.8 13.2 31 11.8 NNE 9 19 5 10 1017.8 1015.2 0.0
19/10:30am 31.0 31.0 14.2 36 10.4 E 7 15 4 8 1018.0 1015.4 0.0
19/10:00am 30.0 30.3 14.9 39 9.4 NE 7 15 4 8 1018.2 1015.7 0.0
19/09:30am 28.0 28.5 15.0 45 8.0 NNE 6 11 3 6 1018.6 1016.1 0.0
19/09:00am 27.0 27.4 15.4 49 7.2 NE 7 13 4 7 1018.9 1016.4 0.0

Other Formats:

Comma delimited format used in spreadsheet applications
http://www.bom.gov.au/fwo/IDQ60801/IDQ60801.99435.axf

JavaScript Object Notation format (JSON) in row-major order
http://www.bom.gov.au/fwo/IDQ60801/IDQ60801.99435.json